Back to Top

Language: 

My Weather Underground Personal Weather Station Historical Data with Graphs...

Delerius Weather Station Historical Data
Daily Summary for June 4, 2017 Units:  Metric    English   Both
« Previous Day
Next Day »
Daily Weekly Monthly Yearly Custom
  High: Low: Average:
Temperature: 18.9 °C 9.6 °C 13.8 °C
Dew Point: 12 °C 6.1 °C 8.4 °C
Humidity: 87 % 45 % 71 %
Wind Speed: 27.4 km/h 0 km/h 9 km/h
Wind Gust: 41.8 km/h - -
Wind:- - WSW
Pressure: 1013.8 hPa 1011.1 hPa -
Precipitation: 0.51 mm    
Historical Graphs
 
 
Tabular Data for June 4, 2017
Time Temperature Dew Point Pressure Wind Wind Speed Wind Gust Humidity Rainfall Rate (Hourly) solar Conditions
00:00 11.6 °C 7.5 °C 1012.4 hPa West 4.8 km/h 12.9 km/h 76 % 0 mm 0 W/m2
00:05 11.6 °C 7.5 °C 1012.4 hPa West 4.8 km/h 12.9 km/h 76 % 0 mm 0 W/m2
00:10 11.5 °C 7.6 °C 1012.4 hPa WNW 4.8 km/h 11.3 km/h 77 % 0 mm 0 W/m2
00:15 11.4 °C 7.5 °C 1012.8 hPa WNW 4.8 km/h 11.3 km/h 77 % 0 mm 0 W/m2
00:20 11.3 °C 7.4 °C 1012.8 hPa WNW 4.8 km/h 9.7 km/h 77 % 0 mm 0 W/m2
00:25 11.2 °C 7.5 °C 1012.8 hPa WNW 3.2 km/h 9.7 km/h 78 % 0 mm 0 W/m2
00:30 11.1 °C 7.4 °C 1012.8 hPa WNW 3.2 km/h 8 km/h 78 % 0 mm 0 W/m2
00:35 11.1 °C 7.6 °C 1012.8 hPa WNW 3.2 km/h 9.7 km/h 79 % 0 mm 0 W/m2
00:40 11 °C 7.5 °C 1012.8 hPa West 3.2 km/h 9.7 km/h 79 % 0 mm 0 W/m2
00:45 11 °C 7.5 °C 1012.8 hPa West 1.6 km/h 9.7 km/h 79 % 0 mm 0 W/m2
00:50 10.9 °C 7.4 °C 1012.8 hPa West 1.6 km/h 8 km/h 79 % 0 mm 0 W/m2
00:55 10.8 °C 7.3 °C 1012.8 hPa West 1.6 km/h 9.7 km/h 79 % 0 mm 0 W/m2
01:00 10.7 °C 7.4 °C 1012.4 hPa WNW 3.2 km/h 9.7 km/h 80 % 0 mm 0 W/m2
01:05 10.7 °C 7.4 °C 1012.4 hPa WNW 1.6 km/h 9.7 km/h 80 % 0 mm 0 W/m2
01:10 10.6 °C 7.3 °C 1012.8 hPa Calm   6.4 km/h 80 % 0 mm 0 W/m2
01:15 10.6 °C 7.3 °C 1012.4 hPa Calm   3.2 km/h 80 % 0 mm 0 W/m2
01:20 10.4 °C 7.3 °C 1012.4 hPa Calm   3.2 km/h 81 % 0 mm 0 W/m2
01:25 10.4 °C 7.3 °C 1012.4 hPa Calm   1.6 km/h 81 % 0 mm 0 W/m2
01:30 10.3 °C 7.2 °C 1012.4 hPa Calm   1.6 km/h 81 % 0 mm 0 W/m2
01:35 10.2 °C 7.3 °C 1012.4 hPa Calm     82 % 0 mm 0 W/m2
01:40 10.1 °C 7.2 °C 1012.4 hPa Calm     82 % 0 mm 0 W/m2
01:45 9.9 °C 6.9 °C 1012.4 hPa Calm   1.6 km/h 82 % 0 mm 0 W/m2
01:50 9.9 °C 7.2 °C 1012.4 hPa Calm   1.6 km/h 83 % 0 mm 0 W/m2
01:55 9.8 °C 7.1 °C 1012.4 hPa Calm   3.2 km/h 83 % 0 mm 0 W/m2
02:00 9.8 °C 7.2 °C 1012.8 hPa Calm   3.2 km/h 84 % 0 mm 0 W/m2
02:05 9.9 °C 7.3 °C 1012.8 hPa Calm   6.4 km/h 84 % 0 mm 0 W/m2
02:10 9.9 °C 7.3 °C 1012.8 hPa Calm   6.4 km/h 84 % 0 mm 0 W/m2
02:15 9.9 °C 7.3 °C 1012.8 hPa Calm   1.6 km/h 84 % 0 mm 0 W/m2
02:21 9.8 °C 7.2 °C 1012.8 hPa Calm     84 % 0 mm 0 W/m2
02:26 9.8 °C 7.2 °C 1012.8 hPa Calm   1.6 km/h 84 % 0 mm 0 W/m2
02:31 9.8 °C 7.4 °C 1012.8 hPa Calm   1.6 km/h 85 % 0 mm 0 W/m2
02:36 9.8 °C 7.4 °C 1012.8 hPa Calm   1.6 km/h 85 % 0 mm 0 W/m2
02:41 9.8 °C 7.2 °C 1012.8 hPa Calm   1.6 km/h 84 % 0 mm 0 W/m2
02:46 9.8 °C 7.2 °C 1012.8 hPa Calm   1.6 km/h 84 % 0 mm 0 W/m2
02:51 9.8 °C 7.2 °C 1012.8 hPa Calm   1.6 km/h 84 % 0 mm 0 W/m2
02:56 9.8 °C 7.2 °C 1012.8 hPa Calm   6.4 km/h 84 % 0 mm 0 W/m2
03:01 9.8 °C 7.4 °C 1012.8 hPa Calm   6.4 km/h 85 % 0 mm 0 W/m2
03:06 9.7 °C 7.3 °C 1012.8 hPa West 1.6 km/h 12.9 km/h 85 % 0 mm 0 W/m2
03:07 9.8 °C 7.6 °C 1012.8 hPa West 1.6 km/h 12.9 km/h 86 % 0 mm 0 W/m2
03:12 9.9 °C 7.7 °C 1012.8 hPa WNW 3.2 km/h 12.9 km/h 86 % 0 mm 0 W/m2
03:17 10.2 °C 7.9 °C 1012.8 hPa West 4.8 km/h 16.1 km/h 86 % 0 mm 0 W/m2
03:22 10.5 °C 7.9 °C 1012.8 hPa WSW 9.7 km/h 20.9 km/h 84 % 0 mm 0 W/m2
03:27 10.7 °C 8.1 °C 1012.8 hPa WSW 9.7 km/h 20.9 km/h 84 % 0 mm 0 W/m2
03:32 10.8 °C 8 °C 1012.8 hPa West 9.7 km/h 17.7 km/h 83 % 0 mm 0 W/m2
03:38 10.8 °C 8 °C 1012.8 hPa West 6.4 km/h 17.7 km/h 83 % 0 mm 0 W/m2
03:43 10.7 °C 7.9 °C 1012.8 hPa West 3.2 km/h 9.7 km/h 83 % 0 mm 0 W/m2
03:48 10.6 °C 7.8 °C 1012.8 hPa WNW 3.2 km/h 9.7 km/h 83 % 0 mm 0 W/m2
03:53 10.5 °C 7.9 °C 1012.8 hPa WNW 6.4 km/h 14.5 km/h 84 % 0 mm 0 W/m2
03:58 10.4 °C 7.8 °C 1012.8 hPa WNW 6.4 km/h 14.5 km/h 84 % 0 mm 0 W/m2
04:03 10.4 °C 7.8 °C 1012.8 hPa West 4.8 km/h 14.5 km/h 84 % 0 mm 0 W/m2
04:08 10.4 °C 8 °C 1012.8 hPa West 6.4 km/h 14.5 km/h 85 % 0 mm 0 W/m2
04:13 10.6 °C 8 °C 1012.8 hPa WSW 4.8 km/h 14.5 km/h 84 % 0 mm 0 W/m2
04:18 10.6 °C 7.8 °C 1012.8 hPa SW 1.6 km/h 8 km/h 83 % 0 mm 0 W/m2
04:23 10.5 °C 7.7 °C 1012.8 hPa Calm   1.6 km/h 83 % 0 mm 0 W/m2
04:28 10.5 °C 7.9 °C 1012.8 hPa SW 1.6 km/h 12.9 km/h 84 % 0 mm 0 W/m2
04:33 10.7 °C 8.1 °C 1012.8 hPa SW 3.2 km/h 12.9 km/h 84 % 0 mm 0 W/m2
04:38 10.7 °C 7.9 °C 1012.8 hPa SW 1.6 km/h 9.7 km/h 83 % 0 mm 0 W/m2
04:43 10.7 °C 7.9 °C 1012.4 hPa WNW 3.2 km/h 11.3 km/h 83 % 0 mm 5 W/m2
04:48 10.8 °C 8 °C 1012.4 hPa West 6.4 km/h 16.1 km/h 83 % 0 mm 7 W/m2
04:53 10.9 °C 7.9 °C 1012.4 hPa West 6.4 km/h 16.1 km/h 82 % 0 mm 7 W/m2
04:58 10.8 °C 7.8 °C 1012.8 hPa West 3.2 km/h 14.5 km/h 82 % 0 mm 9 W/m2
05:03 10.7 °C 7.8 °C 1012.4 hPa West 3.2 km/h 9.7 km/h 82 % 0 mm 11 W/m2
05:08 10.7 °C 7.8 °C 1012.8 hPa WNW 4.8 km/h 12.9 km/h 82 % 0 mm 12 W/m2
05:13 10.7 °C 7.9 °C 1012.8 hPa West 4.8 km/h 12.9 km/h 83 % 0 mm 12 W/m2
05:18 10.7 °C 7.9 °C 1012.8 hPa West 6.4 km/h 17.7 km/h 83 % 0 mm 14 W/m2
05:23 10.7 °C 7.9 °C 1012.8 hPa West 6.4 km/h 17.7 km/h 83 % 0 mm 16 W/m2
05:28 10.6 °C 7.8 °C 1012.8 hPa WSW 3.2 km/h 9.7 km/h 83 % 0 mm 18 W/m2
05:33 10.5 °C 7.7 °C 1012.8 hPa WSW 3.2 km/h 9.7 km/h 83 % 0 mm 19 W/m2
05:38 10.4 °C 7.8 °C 1012.8 hPa WSW 1.6 km/h 9.7 km/h 84 % 0 mm 21 W/m2
05:44 10.3 °C 7.7 °C 1012.8 hPa WSW 3.2 km/h 12.9 km/h 84 % 0 mm 23 W/m2
05:49 10.3 °C 7.9 °C 1012.8 hPa WSW 4.8 km/h 12.9 km/h 85 % 0 mm 23 W/m2
05:54 10.4 °C 8 °C 1012.8 hPa WSW 6.4 km/h 19.3 km/h 85 % 0 mm 26 W/m2
05:59 10.6 °C 8.2 °C 1012.8 hPa West 8 km/h 22.5 km/h 85 % 0 mm 105 W/m2
06:04 10.8 °C 8.4 °C 1012.8 hPa West 11.3 km/h 22.5 km/h 85 % 0 mm 77 W/m2
06:09 11.1 °C 8.5 °C 1012.8 hPa WNW 9.7 km/h 19.3 km/h 84 % 0 mm 42 W/m2
06:14 11.3 °C 8.7 °C 1012.8 hPa WNW 8 km/h 19.3 km/h 84 % 0 mm 47 W/m2
06:19 11.4 °C 8.6 °C 1012.8 hPa WNW 9.7 km/h 19.3 km/h 83 % 0 mm 39 W/m2
06:24 11.5 °C 8.6 °C 1012.8 hPa West 12.9 km/h 22.5 km/h 82 % 0 mm 42 W/m2
06:29 11.6 °C 8.6 °C 1012.8 hPa West 14.5 km/h 24.1 km/h 82 % 0 mm 33 W/m2
06:34 11.7 °C 8.7 °C 1013.1 hPa West 12.9 km/h 24.1 km/h 82 % 0 mm 49 W/m2
06:39 11.8 °C 8.8 °C 1013.1 hPa West 8 km/h 16.1 km/h 82 % 0 mm 42 W/m2
06:44 11.9 °C 8.7 °C 1013.1 hPa West 9.7 km/h 22.5 km/h 81 % 0 mm 46 W/m2
06:49 12.1 °C 8.9 °C 1013.1 hPa West 12.9 km/h 22.5 km/h 81 % 0 mm 49 W/m2
06:54 12.2 °C 8.8 °C 1013.1 hPa West 14.5 km/h 25.7 km/h 80 % 0 mm 56 W/m2
06:59 12.4 °C 9.1 °C 1013.1 hPa West 14.5 km/h 29 km/h 80 % 0 mm 86 W/m2
07:04 12.6 °C 9.1 °C 1013.4 hPa WSW 16.1 km/h 29 km/h 79 % 0 mm 79 W/m2
07:09 12.7 °C 8.9 °C 1013.1 hPa WSW 16.1 km/h 25.7 km/h 78 % 0 mm 54 W/m2
07:14 12.8 °C 9.1 °C 1013.4 hPa WSW 14.5 km/h 22.5 km/h 78 % 0 mm 176 W/m2
07:19 12.9 °C 9.2 °C 1013.4 hPa WSW 12.9 km/h 19.3 km/h 78 % 0 mm 306 W/m2
07:24 13.1 °C 9.2 °C 1013.4 hPa WSW 11.3 km/h 19.3 km/h 77 % 0 mm 322 W/m2
07:29 13.3 °C 9.3 °C 1013.4 hPa West 11.3 km/h 20.9 km/h 77 % 0 mm 329 W/m2
07:34 13.5 °C 9.3 °C 1013.4 hPa West 11.3 km/h 22.5 km/h 76 % 0 mm 343 W/m2
07:39 13.7 °C 9.3 °C 1013.4 hPa West 12.9 km/h 22.5 km/h 75 % 0 mm 378 W/m2
07:44 13.9 °C 9.6 °C 1013.4 hPa West 11.3 km/h 20.9 km/h 75 % 0 mm 394 W/m2
07:49 13.9 °C 9.3 °C 1013.4 hPa West 11.3 km/h 24.1 km/h 74 % 0 mm 118 W/m2
07:55 13.8 °C 9.1 °C 1013.4 hPa West 16.1 km/h 30.6 km/h 73 % 0 mm 144 W/m2
08:00 13.7 °C 9.2 °C 1013.4 hPa West 12.9 km/h 30.6 km/h 74 % 0 mm 420 W/m2
08:05 13.9 °C 9.3 °C 1013.4 hPa West 9.7 km/h 16.1 km/h 74 % 0 mm 424 W/m2
08:10 14.1 °C 9.1 °C 1013.4 hPa West 12.9 km/h 24.1 km/h 72 % 0 mm 83 W/m2
08:15 14.1 °C 9.1 °C 1013.8 hPa West 14.5 km/h 24.1 km/h 72 % 0 mm 464 W/m2
08:20 14.2 °C 9.2 °C 1013.8 hPa West 14.5 km/h 25.7 km/h 72 % 0 mm 480 W/m2
08:25 14.3 °C 9.1 °C 1013.4 hPa West 14.5 km/h 25.7 km/h 71 % 0 mm 487 W/m2
08:30 14.6 °C 9.2 °C 1013.4 hPa West 14.5 km/h 24.1 km/h 70 % 0 mm 499 W/m2
08:35 14.8 °C 8.9 °C 1013.4 hPa West 14.5 km/h 24.1 km/h 68 % 0 mm 515 W/m2
08:40 14.8 °C 8.9 °C 1013.4 hPa West 14.5 km/h 24.1 km/h 68 % 0 mm 527 W/m2
08:45 15 °C 8.9 °C 1013.4 hPa West 16.1 km/h 24.1 km/h 67 % 0 mm 543 W/m2
08:50 15 °C 8.7 °C 1013.4 hPa West 16.1 km/h 25.7 km/h 66 % 0 mm 566 W/m2
08:56 15.2 °C 8.7 °C 1013.4 hPa West 14.5 km/h 25.7 km/h 65 % 0 mm 612 W/m2
09:01 15.5 °C 8.9 °C 1013.4 hPa West 11.3 km/h 20.9 km/h 65 % 0 mm 686 W/m2
09:06 15.9 °C 8.8 °C 1013.4 hPa WNW 9.7 km/h 20.9 km/h 63 % 0 mm 752 W/m2
09:21 15.9 °C 8.6 °C 1013.4 hPa WNW 3.2 km/h 11.3 km/h 62 % 0 mm 237 W/m2
09:26 15.7 °C 8.7 °C 1013.4 hPa WNW 3.2 km/h 11.3 km/h 63 % 0 mm 229 W/m2
09:31 15.8 °C 9 °C 1013.4 hPa West 1.6 km/h 9.7 km/h 64 % 0 mm 269 W/m2
09:36 15.9 °C 8.6 °C 1013.4 hPa West 3.2 km/h 17.7 km/h 62 % 0 mm 236 W/m2
09:41 16 °C 8.5 °C 1013.1 hPa WNW 8 km/h 17.7 km/h 61 % 0 mm 135 W/m2
09:46 15.8 °C 8.3 °C 1013.1 hPa WNW 9.7 km/h 17.7 km/h 61 % 0 mm 772 W/m2
09:51 15.8 °C 8.6 °C 1013.1 hPa West 11.3 km/h 17.7 km/h 62 % 0 mm 731 W/m2
09:56 16.1 °C 8.6 °C 1013.1 hPa WNW 11.3 km/h 19.3 km/h 61 % 0 mm 255 W/m2
10:01 16.3 °C 8.8 °C 1013.1 hPa WNW 9.7 km/h 19.3 km/h 61 % 0 mm 870 W/m2
10:06 16.4 °C 8.6 °C 1013.1 hPa West 9.7 km/h 19.3 km/h 60 % 0 mm 209 W/m2
10:11 16.5 °C 8.7 °C 1013.1 hPa West 11.3 km/h 19.3 km/h 60 % 0 mm 780 W/m2
10:16 16.8 °C 9 °C 1013.1 hPa West 12.9 km/h 25.7 km/h 60 % 0 mm 765 W/m2
10:21 17.2 °C 8.6 °C 1013.1 hPa West 14.5 km/h 25.7 km/h 57 % 0 mm 740 W/m2
10:26 17.4 °C 9.1 °C 1013.1 hPa West 14.5 km/h 25.7 km/h 58 % 0 mm 909 W/m2
10:31 17.6 °C 9 °C 1013.1 hPa West 12.9 km/h 24.1 km/h 57 % 0 mm 754 W/m2
10:36 17.7 °C 8.8 °C 1013.1 hPa West 12.9 km/h 24.1 km/h 56 % 0 mm 308 W/m2
10:41 17.5 °C 8.3 °C 1013.1 hPa West 11.3 km/h 22.5 km/h 55 % 0 mm 274 W/m2
10:46 17.4 °C 8 °C 1013.1 hPa West 11.3 km/h 20.9 km/h 54 % 0 mm 675 W/m2
10:52 17.3 °C 7.9 °C 1012.8 hPa WSW 12.9 km/h 20.9 km/h 54 % 0 mm 911 W/m2
10:56 17.4 °C 8 °C 1013.1 hPa WSW 12.9 km/h 22.5 km/h 54 % 0 mm 858 W/m2
10:57 17.4 °C 8 °C 1012.8 hPa WSW 12.9 km/h 22.5 km/h 54 % 0 mm 858 W/m2
11:02 17.8 °C 8.6 °C 1012.8 hPa WSW 11.3 km/h 20.9 km/h 55 % 0 mm 895 W/m2
11:07 18.2 °C 8.2 °C 1012.8 hPa WSW 12.9 km/h 25.7 km/h 52 % 0 mm 703 W/m2
11:12 18.3 °C 7.4 °C 1012.8 hPa WSW 14.5 km/h 25.7 km/h 49 % 0 mm 976 W/m2
11:17 18.2 °C 7.6 °C 1012.8 hPa WSW 14.5 km/h 25.7 km/h 50 % 0 mm 977 W/m2
11:22 18.2 °C 7.3 °C 1012.8 hPa WSW 16.1 km/h 33.8 km/h 49 % 0 mm 563 W/m2
11:27 18.3 °C 7.7 °C 1012.8 hPa WSW 17.7 km/h 33.8 km/h 50 % 0 mm 821 W/m2
11:32 18.4 °C 7.5 °C 1012.8 hPa WSW 17.7 km/h 35.4 km/h 49 % 0 mm 867 W/m2
11:37 18.3 °C 7.7 °C 1012.8 hPa SW 17.7 km/h 35.4 km/h 50 % 0 mm 381 W/m2
11:42 18.5 °C 7.3 °C 1013.1 hPa WSW 17.7 km/h 32.2 km/h 48 % 0 mm 1216 W/m2
11:47 18.3 °C 6.8 °C 1013.1 hPa WSW 19.3 km/h 32.2 km/h 47 % 0 mm 332 W/m2
11:52 17.7 °C 8.3 °C 1013.1 hPa WSW 20.9 km/h 41.8 km/h 54 % 0 mm 274 W/m2
11:57 16.6 °C 7.8 °C 1013.1 hPa West 27.4 km/h 41.8 km/h 56 % 0 mm 232 W/m2
12:02 15.9 °C 7.9 °C 1013.4 hPa West 27.4 km/h 41.8 km/h 59 % 0 mm 345 W/m2
12:07 15.6 °C 8.3 °C 1013.4 hPa West 22.5 km/h 40.2 km/h 62 % 0 mm 429 W/m2
12:12 15.6 °C 8.1 °C 1013.4 hPa West 20.9 km/h 37 km/h 61 % 0 mm 359 W/m2
12:17 15.6 °C 7.3 °C 1013.4 hPa West 22.5 km/h 37 km/h 58 % 0 mm 323 W/m2
12:23 15.7 °C 7.9 °C 1013.4 hPa West 20.9 km/h 33.8 km/h 60 % 0 mm 294 W/m2
12:28 15.7 °C 7.9 °C 1013.4 hPa West 17.7 km/h 35.4 km/h 60 % 0 mm 269 W/m2
12:33 15.8 °C 7.8 °C 1013.1 hPa WSW 14.5 km/h 35.4 km/h 59 % 0 mm 304 W/m2
12:38 15.7 °C 7.2 °C 1013.1 hPa WSW 12.9 km/h 25.7 km/h 57 % 0 mm 322 W/m2
12:43 15.8 °C 6.8 °C 1013.1 hPa SW 11.3 km/h 25.7 km/h 55 % 0 mm 397 W/m2
12:48 16.1 °C 7.3 °C 1013.1 hPa SW 8 km/h 24.1 km/h 56 % 0 mm 976 W/m2
12:53 16.7 °C 7.6 °C 1013.1 hPa WSW 9.7 km/h 20.9 km/h 55 % 0 mm 930 W/m2
12:59 17.6 °C 7.1 °C 1013.1 hPa WSW 12.9 km/h 25.7 km/h 50 % 0 mm 947 W/m2
13:03 17.9 °C 6.7 °C 1012.8 hPa WSW 17.7 km/h 30.6 km/h 48 % 0 mm 881 W/m2
13:09 18.3 °C 6.8 °C 1012.8 hPa WSW 17.7 km/h 30.6 km/h 47 % 0 mm 932 W/m2
13:14 18.5 °C 6.7 °C 1012.8 hPa WSW 17.7 km/h 32.2 km/h 46 % 0 mm 944 W/m2
13:19 18.7 °C 6.5 °C 1012.8 hPa WSW 19.3 km/h 37 km/h 45 % 0 mm 977 W/m2
13:24 18.5 °C 6.3 °C 1012.8 hPa WSW 20.9 km/h 37 km/h 45 % 0 mm 162 W/m2
13:29 18.3 °C 6.8 °C 1012.8 hPa WSW 19.3 km/h 37 km/h 47 % 0 mm 935 W/m2
13:34 18.5 °C 6.9 °C 1012.8 hPa WSW 17.7 km/h 30.6 km/h 47 % 0 mm 988 W/m2
13:39 18.8 °C 6.9 °C 1012.8 hPa WSW 19.3 km/h 30.6 km/h 46 % 0 mm 1041 W/m2
13:44 18.9 °C 6.7 °C 1012.4 hPa SW 17.7 km/h 30.6 km/h 45 % 0 mm 367 W/m2
13:49 18.7 °C 6.8 °C 1012.4 hPa SW 16.1 km/h 29 km/h 46 % 0 mm 341 W/m2
13:54 18.3 °C 6.5 °C 1012.4 hPa SW 16.1 km/h 29 km/h 46 % 0 mm 313 W/m2
13:59 17.9 °C 6.4 °C 1012.4 hPa SW 14.5 km/h 24.1 km/h 47 % 0 mm 287 W/m2
14:05 17.9 °C 6.7 °C 1012.4 hPa SW 12.9 km/h 24.1 km/h 48 % 0 mm 292 W/m2
14:10 17.8 °C 6.6 °C 1012.4 hPa SW 14.5 km/h 30.6 km/h 48 % 0 mm 271 W/m2
14:15 17.4 °C 6.6 °C 1012.4 hPa SSW 17.7 km/h 32.2 km/h 49 % 0 mm 227 W/m2
14:20 17.3 °C 6.5 °C 1012.4 hPa SW 17.7 km/h 32.2 km/h 49 % 0 mm 188 W/m2
14:21 17.2 °C 6.4 °C 1012.4 hPa SW 17.7 km/h 32.2 km/h 49 % 0 mm 193 W/m2
14:26 17.2 °C 6.9 °C 1012.4 hPa SW 16.1 km/h 32.2 km/h 51 % 0 mm 355 W/m2
14:27 17.2 °C 7.3 °C 1012.4 hPa SW 16.1 km/h 29 km/h 52 % 0 mm 381 W/m2
14:32 17.2 °C 7.6 °C 1012.4 hPa SW 14.5 km/h 25.7 km/h 53 % 0 mm 364 W/m2
14:37 17.3 °C 8.2 °C 1012.4 hPa SW 16.1 km/h 25.7 km/h 55 % 0 mm 371 W/m2
14:42 17.2 °C 8.8 °C 1012.8 hPa SW 17.7 km/h 30.6 km/h 58 % 0 mm 241 W/m2
14:47 17 °C 9.2 °C 1012.4 hPa SW 17.7 km/h 30.6 km/h 60 % 0 mm 1007 W/m2
14:52 17.1 °C 9.5 °C 1012.4 hPa SW 17.7 km/h 29 km/h 61 % 0 mm 995 W/m2
14:57 17.3 °C 9.7 °C 1012.4 hPa SW 17.7 km/h 32.2 km/h 61 % 0 mm 501 W/m2
15:02 17.2 °C 9.6 °C 1012.4 hPa SSW 20.9 km/h 33.8 km/h 61 % 0 mm 367 W/m2
15:07 17.1 °C 9.3 °C 1012.4 hPa SSW 20.9 km/h 33.8 km/h 60 % 0 mm 313 W/m2
15:12 16.8 °C 9.2 °C 1012.4 hPa SSW 19.3 km/h 32.2 km/h 61 % 0 mm 243 W/m2
15:17 16.6 °C 9.3 °C 1012.1 hPa SSW 17.7 km/h 30.6 km/h 62 % 0 mm 204 W/m2
15:22 16.5 °C 9.7 °C 1012.4 hPa SSW 16.1 km/h 30.6 km/h 64 % 0 mm 199 W/m2
15:27 16.3 °C 9.5 °C 1012.1 hPa SSW 12.9 km/h 30.6 km/h 64 % 0 mm 244 W/m2
15:32 16.3 °C 9.7 °C 1012.4 hPa SSW 12.9 km/h 29 km/h 65 % 0 mm 250 W/m2
15:37 16.1 °C 10.4 °C 1012.4 hPa SSW 14.5 km/h 29 km/h 69 % 0 mm 211 W/m2
15:42 15.7 °C 10.7 °C 1012.4 hPa SW 14.5 km/h 30.6 km/h 72 % 0 mm 167 W/m2
15:47 15.2 °C 10.8 °C 1012.8 hPa SW 17.7 km/h 30.6 km/h 75 % 0 mm 121 W/m2
15:52 14.7 °C 11.1 °C 1012.8 hPa SW 14.5 km/h 30.6 km/h 79 % 0.25 mm 141 W/m2
15:57 14.2 °C 10.8 °C 1012.8 hPa SW 14.5 km/h 25.7 km/h 80 % 0.25 mm 148 W/m2
16:02 13.8 °C 10.6 °C 1012.8 hPa SW 12.9 km/h 25.7 km/h 81 % 0.25 mm 155 W/m2
16:07 13.6 °C 10.6 °C 1012.8 hPa SW 11.3 km/h 24.1 km/h 82 % 0.25 mm 125 W/m2
16:12 13.4 °C 10.6 °C 1012.8 hPa SW 9.7 km/h 17.7 km/h 83 % 0.25 mm 113 W/m2
16:17 13.2 °C 10.6 °C 1012.8 hPa SW 9.7 km/h 14.5 km/h 84 % 0.25 mm 128 W/m2
16:23 13.2 °C 10.9 °C 1012.8 hPa SW 11.3 km/h 24.1 km/h 86 % 0.51 mm 220 W/m2
16:28 13.3 °C 11.2 °C 1012.8 hPa SW 9.7 km/h 24.1 km/h 87 % 0.51 mm 220 W/m2
16:33 13.3 °C 11.2 °C 1012.4 hPa SSW 9.7 km/h 17.7 km/h 87 % 0.51 mm 241 W/m2
16:38 13.4 °C 11.3 °C 1012.4 hPa SSW 9.7 km/h 17.7 km/h 87 % 0.51 mm 353 W/m2
16:43 13.7 °C 11.6 °C 1012.1 hPa SSW 8 km/h 17.7 km/h 87 % 0.51 mm 225 W/m2
16:48 13.9 °C 11.8 °C 1012.1 hPa SW 8 km/h 12.9 km/h 87 % 0.51 mm 264 W/m2
16:53 14 °C 11.7 °C 1012.1 hPa SW 6.4 km/h 12.9 km/h 86 % 0.25 mm 221 W/m2
16:58 14.2 °C 11.7 °C 1012.1 hPa SW 8 km/h 16.1 km/h 85 % 0.25 mm 287 W/m2
17:03 14.4 °C 11.9 °C 1012.1 hPa SW 9.7 km/h 16.1 km/h 85 % 0.25 mm 329 W/m2
17:08 14.7 °C 12 °C 1012.1 hPa SW 9.7 km/h 19.3 km/h 84 % 0.25 mm 229 W/m2
17:13 14.8 °C 11.9 °C 1012.1 hPa SW 9.7 km/h 19.3 km/h 83 % 0.25 mm 244 W/m2
17:18 14.9 °C 11.8 °C 1011.7 hPa SW 9.7 km/h 19.3 km/h 82 % 0.25 mm 260 W/m2
17:23 14.9 °C 11.7 °C 1011.7 hPa SW 9.7 km/h 19.3 km/h 81 % 0 mm 671 W/m2
17:28 15.2 °C 11.9 °C 1011.7 hPa SW 8 km/h 14.5 km/h 81 % 0 mm 534 W/m2
17:33 15.6 °C 11.9 °C 1011.7 hPa SSW 9.7 km/h 17.7 km/h 79 % 0 mm 499 W/m2
17:38 15.7 °C 11.5 °C 1011.7 hPa SSW 11.3 km/h 20.9 km/h 76 % 0 mm 483 W/m2
17:43 15.8 °C 11.6 °C 1011.7 hPa SSW 12.9 km/h 20.9 km/h 76 % 0 mm 471 W/m2
17:48 15.9 °C 11.7 °C 1011.7 hPa SSW 12.9 km/h 24.1 km/h 76 % 0 mm 466 W/m2
17:53 16.1 °C 11.9 °C 1011.4 hPa SSW 12.9 km/h 24.1 km/h 76 % 0 mm 452 W/m2
17:58 16.2 °C 11.2 °C 1011.4 hPa SW 11.3 km/h 19.3 km/h 72 % 0 mm 434 W/m2
18:03 16.3 °C 10.8 °C 1011.4 hPa SW 11.3 km/h 19.3 km/h 70 % 0 mm 415 W/m2
18:08 16.4 °C 11.1 °C 1011.4 hPa SW 11.3 km/h 19.3 km/h 71 % 0 mm 399 W/m2
18:13 16.4 °C 10.7 °C 1011.4 hPa SSW 12.9 km/h 20.9 km/h 69 % 0 mm 394 W/m2
18:18 16.5 °C 10.6 °C 1011.4 hPa SSW 12.9 km/h 20.9 km/h 68 % 0 mm 104 W/m2
18:23 16.3 °C 10.4 °C 1011.4 hPa SW 11.3 km/h 22.5 km/h 68 % 0 mm 134 W/m2
18:28 16.2 °C 10.7 °C 1011.4 hPa SW 12.9 km/h 22.5 km/h 70 % 0 mm 127 W/m2
18:33 15.9 °C 10.7 °C 1011.1 hPa SSW 11.3 km/h 19.3 km/h 71 % 0 mm 165 W/m2
18:38 15.9 °C 10.8 °C 1011.1 hPa SSW 11.3 km/h 19.3 km/h 72 % 0 mm 306 W/m2
18:43 16.1 °C 11.3 °C 1011.1 hPa SSW 11.3 km/h 17.7 km/h 73 % 0 mm 445 W/m2
18:48 16.3 °C 10.6 °C 1011.1 hPa SW 11.3 km/h 24.1 km/h 69 % 0 mm 380 W/m2
18:53 16.5 °C 10.6 °C 1011.1 hPa SW 14.5 km/h 24.1 km/h 68 % 0 mm 294 W/m2
18:58 16.5 °C 10.3 °C 1011.1 hPa SW 14.5 km/h 22.5 km/h 67 % 0 mm 272 W/m2
19:03 16.6 °C 10.7 °C 1011.1 hPa SW 12.9 km/h 22.5 km/h 68 % 0 mm 193 W/m2
19:08 16.4 °C 10.7 °C 1011.1 hPa SW 12.9 km/h 22.5 km/h 69 % 0 mm 220 W/m2
19:13 16.2 °C 10.5 °C 1011.1 hPa SSW 14.5 km/h 22.5 km/h 69 % 0 mm 174 W/m2
19:18 16.1 °C 10.6 °C 1011.1 hPa SW 12.9 km/h 22.5 km/h 70 % 0 mm 174 W/m2
19:23 16 °C 10.6 °C 1011.1 hPa SW 11.3 km/h 17.7 km/h 70 % 0 mm 47 W/m2
19:28 15.8 °C 10.3 °C 1011.1 hPa SW 11.3 km/h 17.7 km/h 70 % 0 mm 46 W/m2
19:33 15.7 °C 10.4 °C 1011.1 hPa SW 9.7 km/h 17.7 km/h 71 % 0 mm 39 W/m2
19:38 15.6 °C 10.3 °C 1011.1 hPa SW 9.7 km/h 20.9 km/h 71 % 0 mm 37 W/m2
19:44 15.4 °C 10.4 °C 1011.1 hPa SW 9.7 km/h 20.9 km/h 72 % 0 mm 58 W/m2
19:49 15.4 °C 10.4 °C 1011.1 hPa SSW 9.7 km/h 19.3 km/h 72 % 0 mm 127 W/m2
19:54 15.4 °C 10.6 °C 1011.1 hPa SSW 9.7 km/h 19.3 km/h 73 % 0 mm 148 W/m2
19:59 15.4 °C 10.6 °C 1011.1 hPa SW 8 km/h 12.9 km/h 73 % 0 mm 65 W/m2
20:04 15.4 °C 10.6 °C 1011.1 hPa SW 8 km/h 12.9 km/h 73 % 0 mm 113 W/m2
20:09 15.4 °C 10.6 °C 1011.1 hPa SW 8 km/h 12.9 km/h 73 % 0 mm 88 W/m2
20:14 15.5 °C 10.7 °C 1011.1 hPa SW 8 km/h 12.9 km/h 73 % 0 mm 62 W/m2
20:19 15.4 °C 9.9 °C 1011.1 hPa SW 9.7 km/h 16.1 km/h 70 % 0 mm 37 W/m2
20:24 15.4 °C 9.1 °C 1011.1 hPa SW 11.3 km/h 17.7 km/h 66 % 0 mm 32 W/m2
20:29 15.3 °C 7.3 °C 1011.1 hPa WSW 9.7 km/h 19.3 km/h 59 % 0 mm 28 W/m2
20:34 15.2 °C 6.7 °C 1011.1 hPa WSW 11.3 km/h 19.3 km/h 57 % 0 mm 25 W/m2
20:39 15.1 °C 6.9 °C 1011.1 hPa WSW 9.7 km/h 17.7 km/h 58 % 0 mm 21 W/m2
20:44 14.9 °C 6.7 °C 1011.1 hPa WSW 9.7 km/h 16.1 km/h 58 % 0 mm 18 W/m2
20:49 14.7 °C 6.8 °C 1011.1 hPa WSW 8 km/h 14.5 km/h 59 % 0 mm 16 W/m2
20:54 14.5 °C 6.8 °C 1011.1 hPa WSW 6.4 km/h 14.5 km/h 60 % 0 mm 16 W/m2
20:59 14.3 °C 6.6 °C 1011.4 hPa WSW 4.8 km/h 11.3 km/h 60 % 0 mm 14 W/m2
21:04 14.1 °C 6.7 °C 1011.4 hPa WSW 6.4 km/h 11.3 km/h 61 % 0 mm 12 W/m2
21:09 13.9 °C 6.7 °C 1011.4 hPa WSW 4.8 km/h 9.7 km/h 62 % 0 mm 9 W/m2
21:14 13.8 °C 6.9 °C 1011.4 hPa WSW 4.8 km/h 9.7 km/h 63 % 0 mm 7 W/m2
21:19 13.6 °C 6.7 °C 1011.4 hPa WSW 4.8 km/h 11.3 km/h 63 % 0 mm 5 W/m2
21:24 13.4 °C 6.9 °C 1011.4 hPa WSW 3.2 km/h 11.3 km/h 65 % 0 mm 5 W/m2
21:29 13.3 °C 6.8 °C 1011.4 hPa WSW 1.6 km/h 9.7 km/h 65 % 0 mm 0 W/m2
21:34 13.1 °C 6.9 °C 1011.4 hPa Calm   6.4 km/h 66 % 0 mm 0 W/m2
21:39 12.9 °C 6.9 °C 1011.4 hPa Calm   1.6 km/h 67 % 0 mm 0 W/m2
21:44 12.7 °C 6.9 °C 1011.4 hPa WSW 1.6 km/h 6.4 km/h 68 % 0 mm 0 W/m2
21:49 12.4 °C 6.7 °C 1011.4 hPa West 3.2 km/h 8 km/h 68 % 0 mm 0 W/m2
21:54 12.2 °C 6.7 °C 1011.4 hPa West 3.2 km/h 8 km/h 69 % 0 mm 0 W/m2
21:59 12.1 °C 6.8 °C 1011.4 hPa West 1.6 km/h 8 km/h 70 % 0 mm 0 W/m2
22:00 12.1 °C 6.8 °C 1011.4 hPa West 1.6 km/h 8 km/h 70 % 0 mm 0 W/m2
22:05 11.9 °C 6.8 °C 1011.4 hPa West 1.6 km/h 8 km/h 71 % 0 mm 0 W/m2
22:10 11.7 °C 6.6 °C 1011.4 hPa Calm   1.6 km/h 71 % 0 mm 0 W/m2
22:15 11.5 °C 6.4 °C 1011.4 hPa Calm   4.8 km/h 71 % 0 mm 0 W/m2
22:20 11.3 °C 6.4 °C 1011.4 hPa West 1.6 km/h 8 km/h 72 % 0 mm 0 W/m2
22:25 11.2 °C 6.6 °C 1011.4 hPa West 1.6 km/h 8 km/h 73 % 0 mm 0 W/m2
22:30 11 °C 6.3 °C 1011.4 hPa West 1.6 km/h 4.8 km/h 73 % 0 mm 0 W/m2
22:35 10.8 °C 6.3 °C 1011.4 hPa West 1.6 km/h 4.8 km/h 74 % 0 mm 0 W/m2
22:40 10.7 °C 6.3 °C 1011.4 hPa West 1.6 km/h 4.8 km/h 74 % 0 mm 0 W/m2
22:45 10.6 °C 6.2 °C 1011.4 hPa West 1.6 km/h 4.8 km/h 74 % 0 mm 0 W/m2
22:50 10.5 °C 6.3 °C 1011.4 hPa West 1.6 km/h 3.2 km/h 75 % 0 mm 0 W/m2
22:55 10.4 °C 6.2 °C 1011.4 hPa West 1.6 km/h 3.2 km/h 75 % 0 mm 0 W/m2
23:00 10.3 °C 6.1 °C 1011.4 hPa Calm   3.2 km/h 75 % 0 mm 0 W/m2
23:05 10.2 °C 6.2 °C 1011.1 hPa Calm   3.2 km/h 76 % 0 mm 0 W/m2
23:10 10.1 °C 6.1 °C 1011.1 hPa Calm     76 % 0 mm 0 W/m2
23:15 10 °C 6.2 °C 1011.1 hPa Calm     77 % 0 mm 0 W/m2
23:20 9.9 °C 6.2 °C 1011.4 hPa Calm     78 % 0 mm 0 W/m2
23:25 9.7 °C 6.2 °C 1011.4 hPa Calm     79 % 0 mm 0 W/m2
23:30 9.6 °C 6.3 °C 1011.1 hPa Calm     80 % 0 mm 0 W/m2
23:31 9.6 °C 6.3 °C 1011.1 hPa Calm     80 % 0 mm 0 W/m2
23:36 9.6 °C 6.3 °C 1011.1 hPa Calm   3.2 km/h 80 % 0 mm 0 W/m2
23:41 9.7 °C 6.2 °C 1011.1 hPa Calm   3.2 km/h 79 % 0 mm 0 W/m2
23:46 9.8 °C 6.5 °C 1011.1 hPa Calm   3.2 km/h 80 % 0 mm 0 W/m2
23:51 9.9 °C 6.6 °C 1011.1 hPa Calm     80 % 0 mm 0 W/m2
23:56 9.9 °C 6.4 °C 1011.1 hPa Calm   3.2 km/h 79 % 0 mm 0 W/m2
Delerius-Weather
Compliments of Weather Underground - 2.25 mb

Data updates at regular intervals.